• Join FlightAware (Why Join?)
  • Login
  • US Flag 
08:45PM EDT


 

Airport Tracker/Info


-or-


 

Live Flight TrackerFlight Track Log ✈ N860BA ✈ 12-Oct-2013 ✈ KORD - KVNY

Flight Track Log - Related Links

Times and Time Zones

All times are in EDT time to prevent confusion due to time zone crossing. See the N860BA flight status page for this flight to view local times or setup timezone preferences in your user account.

Time Position Orientation Groundspeed Altitude Reporting Facility
EDT Latitude Longitude Course Direction KTS MPH feet Rate Location/Type
09:50PM 42.0000 -87.9667 270° West 173 199 3,000  Level Chicago TRACON
09:51PM 42.0000 -88.0333 270° West 192 221 6,200 2,460 Climbing Chicago TRACON
09:53PM 41.9992 -88.2211 270° West 257 296 10,900 2,400 Climbing Chicago Center
09:54PM 41.9989 -88.3292 270° West 284 327 13,900 2,700 Climbing Chicago Center
09:55PM 41.9956 -88.4367 268° West 291 335 16,500 2,340 Climbing Chicago Center
09:56PM 41.9753 -88.5450 256° West 298 343 18,700 1,980 Climbing Chicago Center
09:57PM 41.9536 -88.6522 255° West 300 345 20,600 1,800 Climbing Chicago Center
09:58PM 41.9328 -88.7642 256° West 311 358 22,400 1,740 Climbing Chicago Center
09:59PM 41.9108 -88.8778 255° West 315 362 24,200 1,740 Climbing Chicago Center
10:00PM 41.8842 -89.0186 256° West 326 375 26,000 1,560 Climbing Chicago Center
10:01PM 41.8678 -89.1394 260° West 330 380 27,400 1,380 Climbing Chicago Center
10:02PM 41.8539 -89.2644 262° West 340 391 28,800 1,260 Climbing Chicago Center
10:03PM 41.8378 -89.3911 260° West 346 398 30,000 1,140 Climbing Chicago Center
10:04PM 41.8217 -89.5206 261° West 351 404 31,200 1,080 Climbing Chicago Center
10:05PM 41.8044 -89.6517 260° West 359 413 32,200 840 Climbing Chicago Center
10:06PM 41.7908 -89.7722 261° West 362 417 32,900 660 Climbing Chicago Center
10:07PM 41.7725 -89.9058 260° West 366 421 33,600 540 Climbing Chicago Center
10:08PM 41.7544 -90.0469 260° West 379 436 34,000 180 Climbing Chicago Center
10:09PM 41.7319 -90.2219 260° West 397 457 34,000  Level Chicago Center
10:10PM 41.7108 -90.3772 260° West 421 484 34,000  Level Chicago Center
10:11PM 41.6903 -90.5283 260° West 416 479 34,000  Level Chicago Center
10:12PM 41.6694 -90.6758 259° West 415 478 34,000  Level Chicago Center
10:13PM 41.6500 -90.8247 260° West 411 473 34,000  Level Chicago Center
10:14PM 41.6281 -90.9750 259° West 413 475 34,000  Level Chicago Center
10:15PM 41.6086 -91.1214 260° West 406 467 34,000  Level Chicago Center
10:16PM 41.5872 -91.2678 259° West 404 465 34,000  Level Chicago Center
10:17PM 41.5667 -91.4153 259° West 406 467 34,000  Level Chicago Center
10:18PM 41.5453 -91.5619 259° West 405 466 34,000  Level Chicago Center
10:19PM 41.5239 -91.7081 259° West 404 465 34,000  Level Chicago Center
10:20PM 41.5028 -91.8556 259° West 406 467 34,000  Level Chicago Center
10:22PM 41.4631 -92.1242 259° West 407 468 34,100 240 Climbing Minneapolis Center
10:23PM 41.4411 -92.2714 259° West 408 470 34,700 540 Climbing Minneapolis Center
10:24PM 41.4189 -92.4181 259° West 408 470 35,200 540 Climbing Minneapolis Center
10:25PM 41.3958 -92.5642 258° West 408 470 35,800 360 Climbing Minneapolis Center
10:26PM 41.3739 -92.7086 259° West 405 466 36,000 60 Climbing Minneapolis Center
10:27PM 41.3506 -92.8550 258° West 407 468 36,000  Level Minneapolis Center
10:28PM 41.3272 -93.0019 258° West 408 470 36,000  Level Minneapolis Center
10:29PM 41.3039 -93.1481 258° West 409 471 36,000  Level Minneapolis Center
10:30PM 41.2747 -93.3231 258° West 410 472 36,000  Level Minneapolis Center
10:31PM 41.2517 -93.4683 258° West 408 470 36,000  Level Minneapolis Center
10:32PM 41.2306 -93.6078 259° West 398 458 36,000  Level Minneapolis Center
10:33PM 41.2072 -93.7547 258° West 405 466 36,000  Level Minneapolis Center
10:34PM 41.1817 -93.9011 257° West 409 471 36,000  Level Minneapolis Center
10:35PM 41.1556 -94.0497 257° West 413 475 36,000  Level Minneapolis Center
10:36PM 41.1275 -94.2017 256° West 420 483 36,000  Level Minneapolis Center
10:37PM 41.1042 -94.3481 258° West 416 479 36,000  Level Minneapolis Center
10:38PM 41.0831 -94.4889 259° West 406 467 36,000  Level Minneapolis Center
10:39PM 41.0553 -94.6425 257° West 414 476 36,000  Level Minneapolis Center
10:40PM 41.0283 -94.7917 257° West 416 479 36,000  Level Minneapolis Center
10:41PM 41.0017 -94.9406 257° West 417 480 36,000  Level Minneapolis Center
10:42PM 40.9758 -95.0892 257° West 415 478 36,000  Level Minneapolis Center
10:43PM 40.9492 -95.2369 257° West 413 475 36,000  Level Minneapolis Center
10:44PM 40.9217 -95.3842 256° West 412 474 36,000  Level Minneapolis Center
10:45PM 40.8956 -95.5322 257° West 411 473 36,000  Level Minneapolis Center
10:46PM 40.8678 -95.6778 256° West 409 471 36,000  Level Minneapolis Center
10:47PM 40.8408 -95.8253 256° West 409 471 36,000  Level Minneapolis Center
10:48PM 40.8133 -95.9733 256° West 411 473 36,000  Level Minneapolis Center
10:49PM 40.7856 -96.1211 256° West 412 474 36,000  Level Minneapolis Center
10:50PM 40.7578 -96.2672 256° West 410 472 36,000  Level Minneapolis Center
10:51PM 40.7303 -96.4133 256° West 410 472 36,000  Level Minneapolis Center
10:52PM 40.7033 -96.5594 256° West 409 471 36,000  Level Minneapolis Center
10:53PM 40.6750 -96.7047 256° West 409 471 36,000  Level Minneapolis Center
10:54PM 40.6469 -96.8494 256° West 409 471 36,000  Level Minneapolis Center
10:55PM 40.6186 -96.9942 256° West 408 470 36,000  Level Minneapolis Center
10:56PM 40.5900 -97.1378 255° West 407 468 36,000  Level Minneapolis Center
10:57PM 40.5614 -97.2828 255° West 408 470 36,000  Level Minneapolis Center
10:58PM 40.5306 -97.4400 256° West 407 468 36,100  Climbing Minneapolis Center
10:59PM 40.5006 -97.5842 255° West 408 470 36,000 -60 Descending Minneapolis Center
11:00PM 40.4719 -97.7286 255° West 408 470 36,000  Level Minneapolis Center
11:01PM 40.4425 -97.8722 255° West 407 468 36,000  Level Minneapolis Center
11:02PM 40.4125 -98.0161 255° West 407 468 36,000  Level Minneapolis Center
11:03PM 40.3836 -98.1578 255° West 403 464 36,000  Level Minneapolis Center
11:04PM 40.3533 -98.3003 254° West 403 464 36,000  Level Minneapolis Center
11:05PM 40.3233 -98.4419 255° West 403 464 36,000  Level Minneapolis Center
11:06PM 40.2939 -98.5839 255° West 402 463 36,000  Level Minneapolis Center
11:07PM 40.2625 -98.7250 254° West 403 464 36,000  Level Minneapolis Center
11:08PM 40.2331 -98.8669 255° West 403 464 36,000  Level Minneapolis Center
11:09PM 40.1969 -99.0383 255° West 405 466 36,000  Level Minneapolis Center
11:10PM 40.1656 -99.1792 254° West 404 465 36,000  Level Minneapolis Center
11:11PM 40.1342 -99.3219 254° West 405 466 36,100  Climbing Minneapolis Center
11:12PM 40.1039 -99.4650 255° West 408 470 36,000 -60 Descending Minneapolis Center
11:13PM 40.0719 -99.6081 254° West 409 471 36,000  Level Minneapolis Center
11:14PM 40.0394 -99.7514 254° West 410 472 36,000  Level Minneapolis Center
11:15PM 40.0078 -99.8942 254° West 409 471 36,000  Level Minneapolis Center
11:16PM 39.9756 -100.0369 254° West 410 472 36,000  Level Minneapolis Center
11:17PM 39.9444 -100.1803 254° West 410 472 36,000  Level Minneapolis Center
11:18PM 39.9125 -100.3236 254° West 411 473 36,000  Level Minneapolis Center
11:20PM 39.8622 -100.5258 252° West 405 466 36,000  Level Denver Center
11:21PM 39.8308 -100.6600 253° West 405 466 36,000  Level Denver Center
11:22PM 39.7997 -100.7939 253° West 403 464 36,000  Level Denver Center
11:23PM 39.7686 -100.9275 253° West 402 463 36,000  Level Denver Center
11:24PM 39.7317 -101.0817 253° West 399 459 36,000  Level Denver Center
11:25PM 39.7006 -101.2133 253° West 398 458 36,000  Level Denver Center
11:26PM 39.6686 -101.3450 253° West 398 458 36,000  Level Denver Center
11:27PM 39.6317 -101.4989 253° West 399 459 36,000  Level Denver Center
11:28PM 39.6003 -101.6297 253° West 397 457 36,000  Level Denver Center
11:29PM 39.5689 -101.7603 253° West 397 457 36,000  Level Denver Center
11:30PM 39.5317 -101.9128 252° West 397 457 36,000  Level Denver Center
11:31PM 39.4992 -102.0411 252° West 392 451 36,000  Level Denver Center
11:32PM 39.4678 -102.1686 252° West 389 448 36,000  Level Denver Center
11:33PM 39.4308 -102.3172 252° West 390 449 36,000  Level Denver Center
11:34PM 39.4022 -102.4297 252° West 388 447 36,000  Level Denver Center
11:35PM 39.3689 -102.5631 252° West 390 449 36,000  Level Denver Center
11:36PM 39.3328 -102.7083 252° West 390 449 36,000  Level Denver Center
11:37PM 39.3014 -102.8292 251° West 390 449 36,000  Level Denver Center
11:38PM 39.2608 -102.9878 252° West 389 448 36,000  Level Denver Center
11:39PM 39.2269 -103.1203 252° West 389 448 36,000  Level Denver Center
11:40PM 39.1919 -103.2517 251° West 388 447 36,000  Level Denver Center
11:41PM 39.1583 -103.3842 252° West 390 449 36,000  Level Denver Center
11:42PM 39.1236 -103.5164 251° West 390 449 36,000  Level Denver Center
11:43PM 39.0886 -103.6492 251° West 391 450 36,000  Level Denver Center
11:44PM 39.0539 -103.7825 251° West 393 452 36,000  Level Denver Center
11:45PM 39.0183 -103.9139 251° West 390 449 36,000  Level Denver Center
11:46PM 38.9831 -104.0472 251° West 392 451 36,000  Level Denver Center
11:47PM 38.9472 -104.1797 251° West 392 451 36,000  Level Denver Center
11:48PM 38.9122 -104.3117 251° West 390 449 36,000  Level Denver Center
11:49PM 38.8758 -104.4447 251° West 393 452 36,000  Level Denver Center
11:50PM 38.8394 -104.5775 251° West 394 453 36,000  Level Denver Center
11:51PM 38.8028 -104.7103 251° West 394 453 36,000  Level Denver Center
11:52PM 38.7664 -104.8414 250° West 391 450 36,000  Level Denver Center
11:53PM 38.7308 -104.9711 251° West 386 444 36,000  Level Denver Center
11:54PM 38.6942 -105.1017 250° West 387 445 36,000  Level Denver Center
11:55PM 38.6589 -105.2297 251° West 384 442 36,000  Level Denver Center
11:56PM 38.6222 -105.3572 250° West 382 440 36,000  Level Denver Center
11:57PM 38.5858 -105.4861 250° West 384 442 36,000  Level Denver Center
11:58PM 38.5503 -105.6133 250° West 383 441 36,000  Level Denver Center
11:59PM 38.5139 -105.7403 250° West 382 440 36,000  Level Denver Center
12:00AM 38.4717 -105.8817 249° West 383 441 36,000  Level Denver Center
12:01AM 38.4372 -106.0028 250° West 382 440 36,000  Level Denver Center
12:02AM 38.4036 -106.1225 250° West 377 434 36,000  Level Denver Center
12:03AM 38.3669 -106.2447 249° West 379 436 36,000  Level Denver Center
12:04AM 38.3306 -106.3700 250° West 378 435 36,000  Level Denver Center
12:05AM 38.2944 -106.4944 250° West 375 432 36,000  Level Denver Center
12:06AM 38.2561 -106.6208 249° West 373 429 36,000  Level Denver Center
12:07AM 38.2158 -106.7589 250° West 371 427 36,000  Level Denver Center
12:08AM 38.1839 -106.8664 249° West 375 432 36,000  Level Denver Center
12:09AM 38.1461 -106.9908 249° West 375 432 36,000  Level Denver Center
12:10AM 38.1089 -107.1156 249° West 376 433 36,000  Level Denver Center
12:11AM 38.0678 -107.2556 250° West 376 433 36,000  Level Denver Center
12:12AM 38.0317 -107.3756 249° West 379 436 36,000  Level Denver Center
12:13AM 37.9950 -107.4939 249° West 379 436 36,000  Level Denver Center
12:14AM 37.9528 -107.6342 249° West 379 436 36,100  Climbing Denver Center
12:15AM 37.9158 -107.7519 248° West 378 435 36,000  Descending Denver Center
12:16AM 37.8786 -107.8697 248° West 379 436 36,100  Climbing Denver Center
12:17AM 37.8425 -107.9889 249° West 378 435 36,000 -60 Descending Denver Center
12:18AM 37.7992 -108.1261 248° West 377 434 36,000  Level Denver Center
12:19AM 37.7622 -108.2428 248° West 374 430 36,000  Level Denver Center
12:20AM 37.7258 -108.3611 249° West 378 435 36,000  Level Denver Center
12:21AM 37.6833 -108.4969 248° West 376 433 36,000  Level Denver Center
12:22AM 37.6456 -108.6158 248° West 376 433 36,000  Level Denver Center
12:23AM 37.6083 -108.7336 248° West 378 435 36,000  Level Denver Center
12:24AM 37.5644 -108.8694 248° West 378 435 36,000  Level Denver Center
12:25AM 37.5272 -108.9836 248° West 374 430 36,000  Level Denver Center
12:26AM 37.4906 -109.0992 248° West 373 429 36,000  Level Denver Center
12:27AM 37.4456 -109.2367 248° West 380 437 36,000  Level Denver Center
12:28AM 37.4086 -109.3503 248° West 371 427 36,000  Level Denver Center
12:29AM 37.3706 -109.4675 248° West 377 434 36,000  Level Denver Center
12:30AM 37.3328 -109.5814 247° West 373 429 36,000  Level Denver Center
12:31AM 37.2883 -109.7167 248° West 376 433 36,000  Level Denver Center
12:32AM 37.2503 -109.8317 247° West 373 429 36,000  Level Denver Center
12:33AM 37.2114 -109.9483 247° West 377 434 36,000  Level Denver Center
12:34AM 37.1667 -110.0836 248° West 378 435 36,000  Level Denver Center
12:35AM 37.1319 -110.1864 247° West 380 437 36,000  Level Denver Center
12:36AM 37.0914 -110.3081 247° West 378 435 36,000  Level Denver Center
12:37AM 37.0500 -110.4303 247° West 380 437 36,000  Level Denver Center
12:38AM 37.0086 -110.5508 247° West 379 436 36,000  Level Denver Center
12:39AM 36.9678 -110.6717 247° West 378 435 36,000  Level Denver Center
12:40AM 36.9186 -110.8169 247° West 379 436 36,000  Level Denver Center
12:41AM 36.8769 -110.9364 246° West 376 433 36,000  Level Denver Center
12:42AM 36.8347 -111.0572 246° West 379 436 36,000  Level Denver Center
12:43AM 36.7944 -111.1775 247° West 378 435 36,000  Level Denver Center
12:44AM 36.7531 -111.2964 247° West 375 432 36,000  Level Denver Center
12:45AM 36.7092 -111.4181 246° West 380 437 36,000  Level Denver Center
12:46AM 36.6672 -111.5383 247° West 379 436 36,000  Level Denver Center
12:47AM 36.6250 -111.6583 246° West 379 436 36,000  Level Denver Center
12:48AM 36.6075 -111.7064 246° West 379 436 36,000  Level Los Angeles Center
12:49AM 36.5642 -111.8275 246° West 382 440 36,000  Level Los Angeles Center
12:50AM 36.5222 -111.9464 246° West 378 435 36,000  Level Los Angeles Center
12:51AM 36.4789 -112.0675 246° West 380 437 36,000  Level Los Angeles Center
12:52AM 36.4361 -112.1872 246° West 380 437 36,000  Level Los Angeles Center
12:53AM 36.3933 -112.3083 246° West 383 441 36,000  Level Los Angeles Center
12:54AM 36.3497 -112.4300 246° West 385 443 36,000  Level Los Angeles Center
12:55AM 36.3058 -112.5503 246° West 381 438 36,000  Level Los Angeles Center
12:56AM 36.2619 -112.6686 245° Southwest 378 435 36,000  Level Los Angeles Center
12:57AM 36.2108 -112.8131 246° West 382 440 36,000  Level Los Angeles Center
12:58AM 36.1583 -112.9544 245° Southwest 377 434 36,000  Level Los Angeles Center
12:59AM 36.1142 -113.0736 245° Southwest 380 437 36,000  Level Los Angeles Center
01:00AM 36.0706 -113.1928 246° West 380 437 36,000  Level Los Angeles Center
01:01AM 36.0186 -113.3336 246° West 381 438 36,000  Level Los Angeles Center
01:02AM 35.9725 -113.4536 245° Southwest 383 441 36,000  Level Los Angeles Center
01:03AM 35.9292 -113.5747 246° West 384 442 36,000  Level Los Angeles Center
01:04AM 35.8839 -113.6919 245° Southwest 382 440 36,000  Level Los Angeles Center
01:05AM 35.8394 -113.8114 245° Southwest 382 440 36,000  Level Los Angeles Center
01:06AM 35.7936 -113.9317 245° Southwest 385 443 36,000  Level Los Angeles Center
01:07AM 35.7483 -114.0519 245° Southwest 386 444 36,000  Level Los Angeles Center
01:08AM 35.7058 -114.1650 245° Southwest 382 440 36,000  Level Los Angeles Center
01:09AM 35.6558 -114.2903 244° Southwest 388 447 36,000  Level Los Angeles Center
01:10AM 35.6100 -114.4097 245° Southwest 387 445 36,000 -300 Level Los Angeles Center
01:11AM 35.5639 -114.5294 245° Southwest 387 445 35,500 -600 Descending Los Angeles Center
01:12AM 35.5175 -114.6528 245° Southwest 393 452 34,900 -600 Descending Los Angeles Center
01:13AM 35.4689 -114.7778 245° Southwest 401 461 34,400 -480 Descending Los Angeles Center
01:14AM 35.4194 -114.9044 244° Southwest 408 470 34,000 -240 Descending Los Angeles Center
01:15AM 35.3708 -115.0281 244° Southwest 404 465 34,000  Level Los Angeles Center
01:16AM 35.3222 -115.1531 245° Southwest 405 466 34,000  Level Los Angeles Center
01:18AM 35.2736 -115.2764 244° Southwest 402 463 34,000  Level Los Angeles Center
01:19AM 35.2242 -115.3994 244° Southwest 402 463 34,000  Level Los Angeles Center
01:20AM 35.1728 -115.5319 245° Southwest 410 472 34,000  Level Los Angeles Center
01:21AM 35.1239 -115.6544 244° Southwest 404 465 34,000  Level Los Angeles Center
01:22AM 35.0728 -115.7792 243° Southwest 408 470 34,000  Level Los Angeles Center
01:23AM 35.0236 -115.9039 244° Southwest 408 470 34,000 -600 Level Los Angeles Center
01:24AM 34.9733 -116.0289 244° Southwest 409 471 32,800 -1,260 Descending Los Angeles Center
01:25AM 34.9228 -116.1528 244° Southwest 408 470 31,500 -1,380 Descending Los Angeles Center
01:26AM 34.8719 -116.2786 244° Southwest 413 475 30,100 -1,380 Descending Los Angeles Center
01:27AM 34.8206 -116.4031 243° Southwest 411 473 28,800 -1,980 Descending Los Angeles Center
01:28AM 34.7892 -116.5339 254° West 402 463 26,200 -2,640 Descending Los Angeles Center
01:29AM 34.7761 -116.6703 263° West 406 467 23,500 -1,980 Descending Los Angeles Center
01:30AM 34.7631 -116.8047 263° West 401 461 22,300 -1,200 Descending Los Angeles Center
01:31AM 34.7503 -116.9436 264° West 411 473 21,100 -1,200 Descending Los Angeles Center
01:32AM 34.7350 -117.0842 263° West 418 481 20,000 -660 Descending Los Angeles Center
01:33AM 34.7208 -117.2211 263° West 408 470 19,800 -780 Descending Los Angeles Center
01:34AM 34.7053 -117.3725 263° West 401 461 18,500 -1,140 Descending Los Angeles Center
01:35AM 34.6922 -117.4933 263° West 408 470 17,600 -1,080 Descending Los Angeles Center
01:36AM 34.6772 -117.6442 263° West 406 467 16,400 -1,620 Descending Los Angeles Center
01:37AM 34.6642 -117.7625 262° West 395 455 14,400 -2,040 Descending Los Angeles Center
01:38AM 34.6519 -117.8858 263° West 369 425 12,400 -1,860 Descending Los Angeles Center
01:39AM 34.6397 -117.9961 262° West 333 383 10,700 -1,380 Descending Los Angeles Center
01:40AM 34.6233 -118.1083 260° West 285 328 9,700 -780 Descending Los Angeles Center
01:41AM 34.6056 -118.1844 254° West 267 307 9,200 -600 Descending Los Angeles Center
01:42AM 34.5872 -118.2656 255° West 254 292 8,500 -600 Descending Los Angeles Center
01:43AM 34.5686 -118.3469 255° West 254 292 8,000 -300 Descending Los Angeles Center
01:44AM 34.5478 -118.4194 251° West 234 269 8,000 -480 Level Los Angeles Center
01:45AM 34.5000 -118.4728 223° Southwest 235 270 7,100 -1,140 Descending Los Angeles Center
01:46AM 34.4389 -118.5100 207° Southwest 251 289 5,800 -1,200 Descending Los Angeles Center
01:47AM 34.3775 -118.5078 178° South 219 252 4,700 -1,260 Descending Los Angeles Center
01:48AM 34.3139 -118.5019 176° South 201 231 3,300 -1,140 Descending Los Angeles Center
01:49AM 34.2822 -118.4972 173° South 139 160 2,500 -840 Descending Los Angeles Center
01:50AM 34.2500 -118.5000 184° South 117 135 1,600 -840 Descending Southern California TRACON
01:53AM 34.2098 -118.4900 180° South  Level Estimated